Time;durP1;ratioP1;P1;durP2;ratioP2;P2;SDS_P1;SDS_P2;PMS_P1;PMS_P2;Temp;Humidity;BMP_temperature;BMP_pressure;BME280_temperature;BME280_humidity;BME280_pressure;Samples;Min_cycle;Max_cycle;Signal;HPM_P1;HPM_P2
2024/03/08 00:00:58;;;;;;;25.60;21.02;;;5.10;92.10;;;;;;2069797;28;20049;-67
2024/03/08 00:01:59;;;;;;;28.60;21.90;;;5.00;92.20;;;;;;2078209;28;20057;-67
2024/03/08 00:03:01;;;;;;;27.50;21.50;;;5.00;92.10;;;;;;2077093;28;20036;-67
2024/03/08 00:04:02;;;;;;;27.63;21.90;;;5.00;92.20;;;;;;2067629;28;20018;-66
2024/03/08 00:05:04;;;;;;;26.70;21.65;;;5.00;92.20;;;;;;2068834;28;20026;-67
2024/03/08 00:06:05;;;;;;;27.88;21.27;;;5.00;92.20;;;;;;2077298;28;20061;-67
2024/03/08 00:07:07;;;;;;;25.65;21.05;;;5.00;92.20;;;;;;2076033;28;20025;-66
2024/03/08 00:08:09;;;;;;;27.42;21.85;;;5.00;92.20;;;;;;2075431;28;20091;-66
2024/03/08 00:09:10;;;;;;;27.75;22.48;;;5.00;92.20;;;;;;2078099;28;20385;-66
2024/03/08 00:10:12;;;;;;;26.27;21.52;;;5.00;92.20;;;;;;2076274;28;20057;-66
2024/03/08 00:11:12;;;;;;;26.52;22.42;;;5.00;92.30;;;;;;2077995;28;20116;-67
2024/03/08 00:12:15;;;;;;;27.08;22.58;;;5.00;92.30;;;;;;2075433;28;20026;-66
2024/03/08 00:13:16;;;;;;;25.55;20.48;;;5.00;92.20;;;;;;2076116;28;20032;-66
2024/03/08 00:14:16;;;;;;;27.65;22.08;;;5.00;92.20;;;;;;2079268;28;20033;-67
2024/03/08 00:15:17;;;;;;;25.45;20.83;;;5.00;92.20;;;;;;2076332;28;20049;-68
2024/03/08 00:16:19;;;;;;;26.95;21.73;;;5.00;92.20;;;;;;2076066;28;20135;-68
2024/03/08 00:17:27;;;;;;;28.15;22.10;;;5.00;92.20;;;;;;2075806;28;20029;-68
2024/03/08 00:18:28;;;;;;;28.23;22.60;;;5.00;92.20;;;;;;2077507;28;20108;-68
2024/03/08 00:19:29;;;;;;;25.30;21.63;;;5.00;92.10;;;;;;2074937;28;20022;-68
2024/03/08 00:20:29;;;;;;;26.55;21.55;;;5.00;92.10;;;;;;2075799;28;20081;-66
2024/03/08 00:21:31;;;;;;;28.77;23.05;;;5.00;92.20;;;;;;2072757;28;20026;-66
2024/03/08 00:22:34;;;;;;;30.13;23.58;;;5.00;92.10;;;;;;2076638;28;20112;-65
2024/03/08 00:23:35;;;;;;;25.55;22.13;;;5.00;92.10;;;;;;2077126;28;20026;-66
2024/03/08 00:24:37;;;;;;;26.38;20.77;;;4.90;92.10;;;;;;2076301;28;20058;-66
2024/03/08 00:25:38;;;;;;;27.40;23.35;;;4.90;92.10;;;;;;2077724;28;20022;-68
2024/03/08 00:26:39;;;;;;;31.73;24.42;;;4.90;92.10;;;;;;2077806;28;20046;-67
2024/03/08 00:27:40;;;;;;;29.13;23.67;;;4.90;92.10;;;;;;2078904;28;20100;-67
2024/03/08 00:28:41;;;;;;;29.02;23.60;;;4.90;92.10;;;;;;2078485;28;20037;-67
2024/03/08 00:29:42;;;;;;;26.90;22.50;;;4.90;92.10;;;;;;2069207;28;20037;-68
2024/03/08 00:30:42;;;;;;;27.10;22.38;;;4.90;92.10;;;;;;2070595;28;20060;-67
2024/03/08 00:31:43;;;;;;;30.00;23.17;;;4.80;92.10;;;;;;2077468;28;20088;-66
2024/03/08 00:32:43;;;;;;;27.45;23.17;;;4.80;92.10;;;;;;2070377;28;20537;-66
2024/03/08 00:33:44;;;;;;;27.92;23.40;;;4.80;92.20;;;;;;2071628;28;20052;-72
2024/03/08 00:34:45;;;;;;;28.50;24.00;;;4.70;92.20;;;;;;2078897;28;20033;-70
2024/03/08 00:35:45;;;;;;;26.60;23.15;;;4.70;92.20;;;;;;2076926;28;20474;-72
2024/03/08 00:36:46;;;;;;;28.17;23.70;;;4.70;92.20;;;;;;2077888;28;20437;-72
2024/03/08 00:37:46;;;;;;;28.05;24.02;;;4.70;92.30;;;;;;2077974;28;20115;-72
2024/03/08 00:38:47;;;;;;;28.27;23.50;;;4.70;92.30;;;;;;2079987;28;20445;-71
2024/03/08 00:39:51;;;;;;;29.98;23.17;;;4.70;92.30;;;;;;2078620;28;20033;-72
2024/03/08 00:40:52;;;;;;;29.92;23.60;;;4.60;92.30;;;;;;2077729;28;20105;-70
2024/03/08 00:41:52;;;;;;;29.00;24.25;;;4.70;92.40;;;;;;2072689;28;20030;-72
2024/03/08 00:42:53;;;;;;;29.67;23.92;;;4.60;92.30;;;;;;2072337;28;20025;-72
2024/03/08 00:43:53;;;;;;;33.17;24.80;;;4.60;92.40;;;;;;2076194;28;20022;-72
2024/03/08 00:44:54;;;;;;;29.08;23.55;;;4.60;92.40;;;;;;2078974;28;20464;-72
2024/03/08 00:45:54;;;;;;;35.97;25.27;;;4.60;92.30;;;;;;2077460;28;20022;-72
2024/03/08 00:46:56;;;;;;;28.52;23.50;;;4.60;92.30;;;;;;2078094;28;20109;-70
2024/03/08 00:47:57;;;;;;;27.15;24.13;;;4.60;92.30;;;;;;2077114;28;20037;-72
2024/03/08 00:48:57;;;;;;;27.80;23.23;;;4.60;92.30;;;;;;2077983;28;20033;-72
2024/03/08 00:49:58;;;;;;;29.55;24.88;;;4.60;92.30;;;;;;2076782;28;20095;-72
2024/03/08 00:50:58;;;;;;;29.33;24.27;;;4.60;92.30;;;;;;2077491;28;20091;-70
2024/03/08 00:51:59;;;;;;;28.70;23.70;;;4.60;92.30;;;;;;2078229;28;20029;-72
2024/03/08 00:53:00;;;;;;;30.13;25.17;;;4.60;92.30;;;;;;2078593;28;20036;-71
2024/03/08 00:54:00;;;;;;;30.60;24.35;;;4.60;92.30;;;;;;2080712;28;20048;-72
2024/03/08 00:55:01;;;;;;;30.48;24.63;;;4.60;92.30;;;;;;2080317;28;20037;-72
2024/03/08 00:56:02;;;;;;;28.65;23.73;;;4.50;92.30;;;;;;2076863;28;20037;-72
2024/03/08 00:57:04;;;;;;;29.75;24.55;;;4.60;92.30;;;;;;2078332;28;20494;-72
2024/03/08 00:58:05;;;;;;;27.95;23.20;;;4.50;92.30;;;;;;2076866;28;20494;-72
2024/03/08 00:59:07;;;;;;;30.60;24.25;;;4.50;92.40;;;;;;2076912;28;20442;-71
2024/03/08 01:00:11;;;;;;;31.02;24.48;;;4.50;92.40;;;;;;2076477;28;20068;-72
2024/03/08 01:01:15;;;;;;;31.05;24.45;;;4.50;92.40;;;;;;2076957;28;20041;-72
2024/03/08 01:02:18;;;;;;;31.55;24.63;;;4.50;92.40;;;;;;2078596;28;20033;-72
2024/03/08 01:03:19;;;;;;;26.33;23.10;;;4.50;92.40;;;;;;2079581;28;20669;-72
2024/03/08 01:04:21;;;;;;;30.10;24.65;;;4.50;92.40;;;;;;2077055;28;20426;-71
2024/03/08 01:05:24;;;;;;;29.35;23.17;;;4.50;92.40;;;;;;2076746;28;20038;-72
2024/03/08 01:06:24;;;;;;;28.10;25.10;;;4.50;92.40;;;;;;2078208;28;20028;-72
2024/03/08 01:07:25;;;;;;;34.20;25.33;;;4.50;92.30;;;;;;2071796;28;20093;-71
2024/03/08 01:08:25;;;;;;;30.20;24.48;;;4.50;92.30;;;;;;2063030;28;20037;-71
2024/03/08 01:09:26;;;;;;;30.10;24.58;;;4.50;92.30;;;;;;2070967;28;20080;-72
2024/03/08 01:10:27;;;;;;;32.30;25.10;;;4.50;92.30;;;;;;2076241;28;20053;-72
2024/03/08 01:11:28;;;;;;;30.27;24.58;;;4.50;92.30;;;;;;2077629;28;20471;-69
2024/03/08 01:12:29;;;;;;;29.38;24.63;;;4.50;92.30;;;;;;2077464;28;20018;-72
2024/03/08 01:13:29;;;;;;;28.58;23.77;;;4.50;92.30;;;;;;2078458;28;20080;-72
2024/03/08 01:14:30;;;;;;;31.73;24.30;;;4.50;92.20;;;;;;2077340;28;20547;-71
2024/03/08 01:15:31;;;;;;;30.75;25.02;;;4.50;92.20;;;;;;2076948;28;20022;-71
2024/03/08 01:16:33;;;;;;;32.53;24.80;;;4.40;92.20;;;;;;2078700;28;20065;-71
2024/03/08 01:17:33;;;;;;;31.23;25.45;;;4.50;92.20;;;;;;2076671;28;20022;-72
2024/03/08 01:18:34;;;;;;;32.00;25.00;;;4.40;92.50;;;;;;2076872;28;20079;-72
2024/03/08 01:19:35;;;;;;;29.60;23.95;;;4.40;92.20;;;;;;2078451;28;20029;-72
2024/03/08 01:20:35;;;;;;;30.10;24.10;;;4.40;92.20;;;;;;2077139;28;20037;-72
2024/03/08 01:21:36;;;;;;;30.33;25.38;;;4.40;92.20;;;;;;2074949;28;20579;-72
2024/03/08 01:22:37;;;;;;;28.90;24.13;;;4.40;92.20;;;;;;2073789;28;20092;-72
2024/03/08 01:23:37;;;;;;;30.25;25.30;;;4.40;92.20;;;;;;2069234;28;20549;-71
2024/03/08 01:24:38;;;;;;;30.83;24.55;;;4.40;92.20;;;;;;2070144;28;20165;-72
2024/03/08 01:25:39;;;;;;;28.27;24.83;;;4.40;92.20;;;;;;2071411;28;20602;-72
2024/03/08 01:26:39;;;;;;;29.10;23.50;;;4.40;92.20;;;;;;2058207;28;20090;-72
2024/03/08 01:27:40;;;;;;;29.67;23.38;;;4.40;92.20;;;;;;2061005;28;20531;-72
2024/03/08 01:29:00;;;;;;;29.08;23.45;;;4.40;92.20;;;;;;2069288;28;20033;-72
2024/03/08 01:30:00;;;;;;;29.50;24.35;;;4.40;92.20;;;;;;2067892;28;20034;-72
2024/03/08 01:31:03;;;;;;;29.65;24.70;;;4.40;92.20;;;;;;2070316;28;20558;-71
2024/03/08 01:32:04;;;;;;;32.33;25.27;;;4.30;92.20;;;;;;2067827;28;20886;-72
2024/03/08 01:33:05;;;;;;;31.20;24.67;;;4.40;92.20;;;;;;2066490;28;20022;-71
2024/03/08 01:34:06;;;;;;;29.63;23.88;;;4.40;92.10;;;;;;2063202;28;20088;-72
2024/03/08 01:35:09;;;;;;;33.88;25.30;;;4.40;92.10;;;;;;2063717;28;20038;-72
2024/03/08 01:36:09;;;;;;;30.27;24.00;;;4.40;92.10;;;;;;2068579;28;20085;-72
2024/03/08 01:37:10;;;;;;;29.20;24.65;;;4.40;92.10;;;;;;2071332;28;20021;-72
2024/03/08 01:38:11;;;;;;;30.85;25.40;;;4.40;92.10;;;;;;2069941;28;20501;-71
2024/03/08 01:39:11;;;;;;;31.50;24.50;;;4.40;92.10;;;;;;2069607;28;20038;-72
2024/03/08 01:40:12;;;;;;;29.63;25.48;;;4.40;92.10;;;;;;2069241;28;20360;-72
2024/03/08 01:41:13;;;;;;;31.63;25.73;;;4.30;92.00;;;;;;2063014;28;20025;-71
2024/03/08 01:42:15;;;;;;;28.85;23.80;;;4.30;92.10;;;;;;2063931;28;20030;-72
2024/03/08 01:43:21;;;;;;;28.17;24.50;;;4.30;92.10;;;;;;2068641;28;20120;-72
2024/03/08 01:44:22;;;;;;;36.05;25.55;;;4.30;92.10;;;;;;2068578;28;20013;-72
2024/03/08 01:45:22;;;;;;;28.85;23.83;;;4.40;92.10;;;;;;2069732;28;20190;-73
2024/03/08 01:46:23;;;;;;;31.60;24.30;;;4.30;92.10;;;;;;2068053;28;20037;-72
2024/03/08 01:47:24;;;;;;;30.15;24.90;;;4.40;92.10;;;;;;2069836;28;20497;-69
2024/03/08 01:48:25;;;;;;;29.92;24.70;;;4.40;92.10;;;;;;2069600;28;20022;-72
2024/03/08 01:49:27;;;;;;;31.40;25.13;;;4.30;92.10;;;;;;2069287;28;20076;-69
2024/03/08 01:50:28;;;;;;;31.33;25.08;;;4.30;92.00;;;;;;2069202;28;20367;-72
2024/03/08 01:51:30;;;;;;;31.15;24.58;;;4.30;92.00;;;;;;2069527;28;20096;-72
2024/03/08 01:52:32;;;;;;;28.65;24.33;;;4.40;92.00;;;;;;2066836;28;20023;-71
2024/03/08 01:53:35;;;;;;;31.50;25.50;;;4.30;92.00;;;;;;2066245;28;20028;-72
2024/03/08 01:54:36;;;;;;;28.23;24.25;;;4.30;92.00;;;;;;2067533;28;20022;-72
2024/03/08 01:55:37;;;;;;;32.35;24.60;;;4.30;92.00;;;;;;2068128;28;20029;-72
2024/03/08 01:56:38;;;;;;;32.17;25.55;;;4.30;92.00;;;;;;2067180;28;20521;-72
2024/03/08 01:57:39;;;;;;;29.88;24.92;;;4.40;92.00;;;;;;2069409;28;20085;-72
2024/03/08 01:58:43;;;;;;;31.70;25.30;;;4.30;92.00;;;;;;2071256;28;20672;-71
2024/03/08 01:59:43;;;;;;;28.83;25.17;;;4.30;92.00;;;;;;2070522;28;20034;-71
2024/03/08 02:00:46;;;;;;;32.00;25.20;;;4.30;92.00;;;;;;2069082;28;20033;-72
2024/03/08 02:01:47;;;;;;;31.13;25.13;;;4.30;92.00;;;;;;2067881;28;20105;-72
2024/03/08 02:02:51;;;;;;;30.50;24.70;;;4.30;92.00;;;;;;2069712;28;20113;-72
2024/03/08 02:03:51;;;;;;;31.10;26.67;;;4.30;92.10;;;;;;2067973;28;20505;-72
2024/03/08 02:04:52;;;;;;;30.90;25.25;;;4.20;92.00;;;;;;2069157;28;20422;-72
2024/03/08 02:05:54;;;;;;;31.17;24.83;;;4.20;92.00;;;;;;2069767;28;20048;-71
2024/03/08 02:06:55;;;;;;;31.25;25.20;;;4.20;92.10;;;;;;2069118;28;20109;-71
2024/03/08 02:07:56;;;;;;;33.00;25.08;;;4.20;92.10;;;;;;2072200;28;20022;-71
2024/03/08 02:08:57;;;;;;;33.30;25.25;;;4.20;92.10;;;;;;2069553;28;20108;-72
2024/03/08 02:09:57;;;;;;;32.15;25.05;;;4.20;92.10;;;;;;2068030;28;20061;-72
2024/03/08 02:10:58;;;;;;;30.15;25.15;;;4.20;92.20;;;;;;2068474;28;20026;-72
2024/03/08 02:12:05;;;;;;;30.48;24.33;;;4.20;92.20;;;;;;2065871;28;20410;-72
2024/03/08 02:13:06;;;;;;;32.08;25.58;;;4.20;92.20;;;;;;2069797;28;20033;-71
2024/03/08 02:14:06;;;;;;;31.30;25.52;;;4.20;92.20;;;;;;2070885;28;20065;-72
2024/03/08 02:15:07;;;;;;;32.28;26.27;;;4.20;92.30;;;;;;2069951;28;20018;-72
2024/03/08 02:16:08;;;;;;;29.27;24.95;;;4.10;92.20;;;;;;2069663;28;20113;-72
2024/03/08 02:17:08;;;;;;;30.35;26.02;;;4.20;92.30;;;;;;2068907;28;20045;-72
2024/03/08 02:18:09;;;;;;;30.38;25.67;;;4.10;92.20;;;;;;2070538;28;20034;-72
2024/03/08 02:19:09;;;;;;;30.98;24.95;;;4.10;92.20;;;;;;2068740;28;20105;-72
2024/03/08 02:20:13;;;;;;;34.33;26.08;;;4.10;92.30;;;;;;2071702;28;20036;-72
2024/03/08 02:21:18;;;;;;;28.80;24.70;;;4.10;92.30;;;;;;2068764;28;20034;-72
2024/03/08 02:22:19;;;;;;;29.73;25.08;;;4.20;92.30;;;;;;2071549;28;20026;-72
2024/03/08 02:23:20;;;;;;;30.67;25.17;;;4.20;92.50;;;;;;2068430;28;20030;-72
2024/03/08 02:24:21;;;;;;;31.10;25.15;;;4.10;92.30;;;;;;2066571;28;20112;-72
2024/03/08 02:25:21;;;;;;;32.30;26.88;;;4.20;92.30;;;;;;2069593;28;20025;-72
2024/03/08 02:26:22;;;;;;;30.77;26.10;;;4.10;92.30;;;;;;2070342;28;20486;-72
2024/03/08 02:27:25;;;;;;;34.80;26.77;;;4.10;92.30;;;;;;2071137;28;20168;-72
2024/03/08 02:28:25;;;;;;;31.25;24.67;;;4.10;92.30;;;;;;2069919;28;20050;-69
2024/03/08 02:29:26;;;;;;;29.65;25.40;;;4.10;92.40;;;;;;2068304;28;20026;-71
2024/03/08 02:30:29;;;;;;;34.75;25.45;;;4.10;92.40;;;;;;2071348;28;20114;-71
2024/03/08 02:31:30;;;;;;;31.58;25.27;;;4.10;92.40;;;;;;2072692;28;20685;-71
2024/03/08 02:32:32;;;;;;;33.22;26.45;;;4.10;92.40;;;;;;2071156;28;20453;-71
2024/03/08 02:33:33;;;;;;;32.80;25.85;;;4.10;92.40;;;;;;2070175;28;20505;-71
2024/03/08 02:34:34;;;;;;;34.15;26.15;;;4.10;92.40;;;;;;2070405;28;20157;-71
2024/03/08 02:35:37;;;;;;;31.15;25.05;;;4.10;92.50;;;;;;2069701;28;20770;-71
2024/03/08 02:36:38;;;;;;;34.33;25.73;;;4.00;92.40;;;;;;2069304;28;20475;-71
2024/03/08 02:37:38;;;;;;;30.10;25.13;;;4.00;92.50;;;;;;2069362;28;20390;-72
2024/03/08 02:38:41;;;;;;;31.05;25.27;;;4.10;92.50;;;;;;2062597;28;20049;-72
2024/03/08 02:39:42;;;;;;;34.70;25.42;;;4.10;92.50;;;;;;2063863;28;20089;-72
2024/03/08 02:40:43;;;;;;;30.05;25.05;;;4.00;92.50;;;;;;2069534;28;20026;-71
2024/03/08 02:41:43;;;;;;;30.27;25.27;;;4.00;92.60;;;;;;2069822;28;20025;-71
2024/03/08 02:42:44;;;;;;;31.13;24.67;;;4.00;92.60;;;;;;2073242;28;20037;-72
2024/03/08 02:43:45;;;;;;;30.52;24.88;;;4.00;92.60;;;;;;2068161;28;20502;-72
2024/03/08 02:44:45;;;;;;;32.83;25.55;;;4.00;92.60;;;;;;2069131;28;20399;-72
2024/03/08 02:45:46;;;;;;;32.72;25.50;;;4.00;92.60;;;;;;2070550;28;20052;-72
2024/03/08 02:46:47;;;;;;;32.08;24.88;;;4.00;92.60;;;;;;2070305;28;20462;-71
2024/03/08 02:47:50;;;;;;;35.03;26.83;;;4.00;92.60;;;;;;2068884;28;20022;-72
2024/03/08 02:48:50;;;;;;;33.45;26.70;;;4.00;92.60;;;;;;2070729;28;20034;-71
2024/03/08 02:49:51;;;;;;;32.45;24.75;;;4.00;92.60;;;;;;2075542;28;20056;-72
2024/03/08 02:50:52;;;;;;;32.17;26.33;;;4.00;92.60;;;;;;2075278;28;20120;-72
2024/03/08 02:51:53;;;;;;;32.65;26.13;;;4.00;92.70;;;;;;2068489;28;20093;-71
2024/03/08 02:52:56;;;;;;;32.83;26.27;;;4.00;92.70;;;;;;2071241;28;20033;-73
2024/03/08 02:53:57;;;;;;;33.47;24.85;;;4.00;92.70;;;;;;2068866;28;20490;-71
2024/03/08 02:54:57;;;;;;;33.55;26.13;;;4.00;93.10;;;;;;2070387;28;20376;-70
2024/03/08 02:55:59;;;;;;;32.22;25.63;;;4.00;92.80;;;;;;2069242;28;20092;-72
2024/03/08 02:56:59;;;;;;;32.53;26.15;;;4.00;92.80;;;;;;2071894;28;20029;-71
2024/03/08 02:58:00;;;;;;;32.55;26.63;;;4.00;92.80;;;;;;2069389;28;20107;-71
2024/03/08 02:59:00;;;;;;;32.03;26.17;;;3.90;92.80;;;;;;2064150;28;20050;-71
2024/03/08 03:00:01;;;;;;;32.42;25.15;;;4.00;92.80;;;;;;2063879;28;20038;-71
2024/03/08 03:01:02;;;;;;;33.17;26.20;;;4.00;92.80;;;;;;2068006;28;20474;-72
2024/03/08 03:02:03;;;;;;;30.15;26.27;;;4.00;92.90;;;;;;2069682;28;20022;-71
2024/03/08 03:03:03;;;;;;;32.13;25.98;;;4.00;92.90;;;;;;2070084;28;20041;-71
2024/03/08 03:04:04;;;;;;;31.05;24.98;;;3.90;92.80;;;;;;2069477;28;20022;-71
2024/03/08 03:05:06;;;;;;;32.20;25.35;;;4.00;92.90;;;;;;2070162;28;20034;-70
2024/03/08 03:06:07;;;;;;;31.30;25.48;;;4.00;92.90;;;;;;2069724;28;20028;-72
2024/03/08 03:07:07;;;;;;;30.60;25.02;;;3.90;92.90;;;;;;2069216;28;20018;-72
2024/03/08 03:08:08;;;;;;;31.55;25.10;;;3.90;92.90;;;;;;2071609;28;20080;-71
2024/03/08 03:09:10;;;;;;;34.65;26.05;;;4.00;92.90;;;;;;2068426;28;20033;-71
2024/03/08 03:10:12;;;;;;;34.03;25.48;;;4.00;92.90;;;;;;2069170;28;20025;-71
2024/03/08 03:11:13;;;;;;;33.90;27.15;;;3.90;92.90;;;;;;2069176;28;20014;-72
2024/03/08 03:12:13;;;;;;;34.72;26.27;;;4.00;93.00;;;;;;2070552;28;20033;-71
2024/03/08 03:13:14;;;;;;;33.40;26.83;;;3.90;93.00;;;;;;2069202;28;20540;-72
2024/03/08 03:14:16;;;;;;;32.28;25.95;;;4.00;93.00;;;;;;2070497;28;20022;-72
2024/03/08 03:15:17;;;;;;;35.92;26.48;;;3.90;93.00;;;;;;2070032;28;20254;-71
2024/03/08 03:16:21;;;;;;;33.63;25.95;;;3.90;93.00;;;;;;2070494;28;20490;-70
2024/03/08 03:17:24;;;;;;;34.97;27.55;;;3.90;93.00;;;;;;2067286;28;20058;-70
2024/03/08 03:18:26;;;;;;;30.83;26.63;;;3.90;93.00;;;;;;2064185;28;20034;-72
2024/03/08 03:19:27;;;;;;;32.70;26.33;;;3.90;93.10;;;;;;2072437;28;20483;-71
2024/03/08 03:20:32;;;;;;;32.92;25.88;;;3.90;93.10;;;;;;2067650;28;20030;-72
2024/03/08 03:21:35;;;;;;;35.10;26.80;;;3.90;93.10;;;;;;2067925;28;20030;-72
2024/03/08 03:22:40;;;;;;;35.42;26.33;;;3.90;93.20;;;;;;2070462;28;20546;-72
2024/03/08 03:23:44;;;;;;;31.23;25.50;;;3.90;93.20;;;;;;2068371;28;20034;-71
2024/03/08 03:24:47;;;;;;;30.08;25.60;;;3.90;93.20;;;;;;2068851;28;20034;-71
2024/03/08 03:25:48;;;;;;;40.45;26.60;;;3.80;93.30;;;;;;2070626;28;20081;-71
2024/03/08 03:26:49;;;;;;;32.03;25.52;;;3.80;93.30;;;;;;2069263;28;20394;-71
2024/03/08 03:27:50;;;;;;;31.73;25.63;;;3.80;93.30;;;;;;2068386;28;20033;-71
2024/03/08 03:28:50;;;;;;;35.35;26.85;;;3.80;93.30;;;;;;2068433;28;20033;-71
2024/03/08 03:29:52;;;;;;;40.35;27.05;;;3.80;93.30;;;;;;2066825;28;20129;-71
2024/03/08 03:30:52;;;;;;;33.45;26.10;;;3.80;93.30;;;;;;2067747;28;20120;-71
2024/03/08 03:31:53;;;;;;;33.33;25.90;;;3.80;93.30;;;;;;2065618;28;20034;-72
2024/03/08 03:33:00;;;;;;;33.83;26.02;;;3.80;93.30;;;;;;2070662;28;20037;-71
2024/03/08 03:34:03;;;;;;;39.65;27.83;;;3.80;93.40;;;;;;2068071;28;20034;-70
2024/03/08 03:35:05;;;;;;;32.40;26.10;;;3.80;93.40;;;;;;2069857;28;20037;-72
2024/03/08 03:36:08;;;;;;;31.83;25.23;;;3.80;93.40;;;;;;2066351;28;20187;-72
2024/03/08 03:37:12;;;;;;;34.25;26.88;;;3.80;93.50;;;;;;2068377;28;20040;-71
2024/03/08 03:38:14;;;;;;;36.10;27.38;;;3.80;93.50;;;;;;2067258;28;20038;-71
2024/03/08 03:39:16;;;;;;;36.08;27.27;;;3.70;93.40;;;;;;2069352;28;20482;-71
2024/03/08 03:40:19;;;;;;;34.00;27.00;;;3.70;93.40;;;;;;2067370;28;20085;-71
2024/03/08 03:41:19;;;;;;;32.42;25.95;;;3.80;93.50;;;;;;2069751;28;20026;-72
2024/03/08 03:42:20;;;;;;;37.55;26.38;;;3.80;93.50;;;;;;2068795;28;20018;-72
2024/03/08 03:43:20;;;;;;;33.80;27.98;;;3.80;93.50;;;;;;2068006;28;20048;-71
2024/03/08 03:44:23;;;;;;;31.58;26.35;;;3.70;93.50;;;;;;2067824;28;20026;-72
2024/03/08 03:45:24;;;;;;;33.65;26.52;;;3.70;93.60;;;;;;2068622;28;20470;-72
2024/03/08 03:46:27;;;;;;;33.65;27.05;;;3.70;94.00;;;;;;2068277;28;20548;-71
2024/03/08 03:47:27;;;;;;;33.08;27.35;;;3.70;93.70;;;;;;2069519;28;20057;-71
2024/03/08 03:48:28;;;;;;;41.40;28.60;;;3.70;93.70;;;;;;2068754;28;20032;-71
2024/03/08 03:49:28;;;;;;;32.42;26.10;;;3.70;93.70;;;;;;2061645;28;20129;-72
2024/03/08 03:50:29;;;;;;;35.53;27.75;;;3.70;93.80;;;;;;2059107;28;20030;-71
2024/03/08 03:51:30;;;;;;;35.20;26.48;;;3.70;93.80;;;;;;2067191;28;20084;-72
2024/03/08 03:52:31;;;;;;;33.80;26.52;;;3.70;93.80;;;;;;2067359;28;20054;-72
2024/03/08 03:53:31;;;;;;;32.28;26.27;;;3.70;93.80;;;;;;2068848;28;20037;-71
2024/03/08 03:54:33;;;;;;;30.48;26.10;;;3.70;93.80;;;;;;2070317;28;20076;-72
2024/03/08 03:55:34;;;;;;;37.60;29.02;;;3.70;93.80;;;;;;2068560;28;20037;-72
2024/03/08 03:56:35;;;;;;;34.65;27.15;;;3.70;93.90;;;;;;2068641;28;20023;-72
2024/03/08 03:57:35;;;;;;;36.05;28.30;;;3.70;93.90;;;;;;2068779;28;20080;-71
2024/03/08 03:58:36;;;;;;;32.65;26.67;;;3.60;93.90;;;;;;2066210;28;20022;-71
2024/03/08 03:59:36;;;;;;;36.40;28.40;;;3.60;93.90;;;;;;2068070;28;20058;-71
2024/03/08 04:00:37;;;;;;;34.63;27.50;;;3.60;93.90;;;;;;2070088;28;20084;-70
2024/03/08 04:01:42;;;;;;;34.17;27.65;;;3.60;94.00;;;;;;2070668;28;20368;-72
2024/03/08 04:02:42;;;;;;;35.20;27.20;;;3.60;94.10;;;;;;2069826;28;20022;-71
2024/03/08 04:03:43;;;;;;;35.80;27.58;;;3.60;94.00;;;;;;2069852;28;20557;-71
2024/03/08 04:04:45;;;;;;;35.28;27.30;;;3.60;94.10;;;;;;2072416;28;20030;-71
2024/03/08 04:05:46;;;;;;;35.08;28.35;;;3.50;94.10;;;;;;2069611;28;20027;-71
2024/03/08 04:06:47;;;;;;;34.05;27.77;;;3.60;94.10;;;;;;2068572;28;20104;-71
2024/03/08 04:07:48;;;;;;;35.75;27.48;;;3.60;94.20;;;;;;2068438;28;20034;-72
2024/03/08 04:08:48;;;;;;;35.45;28.38;;;3.60;94.20;;;;;;2070148;28;20038;-72
2024/03/08 04:09:49;;;;;;;35.22;27.63;;;3.60;94.20;;;;;;2069754;28;20371;-72
2024/03/08 04:10:51;;;;;;;35.47;27.55;;;3.50;94.20;;;;;;2070275;28;20038;-70
2024/03/08 04:11:52;;;;;;;36.60;29.38;;;3.50;94.20;;;;;;2070211;28;20035;-71
2024/03/08 04:12:53;;;;;;;35.72;29.42;;;3.50;94.30;;;;;;2069096;28;20049;-71
2024/03/08 04:13:54;;;;;;;35.13;27.95;;;3.50;94.30;;;;;;2071274;28;20031;-68
2024/03/08 04:14:55;;;;;;;35.15;28.90;;;3.50;94.30;;;;;;2069193;28;20054;-72
2024/03/08 04:15:56;;;;;;;37.67;29.00;;;3.50;94.30;;;;;;2070865;28;20025;-71
2024/03/08 04:16:56;;;;;;;36.47;28.80;;;3.50;94.40;;;;;;2070602;28;20030;-71
2024/03/08 04:17:57;;;;;;;39.30;28.70;;;3.50;94.40;;;;;;2068144;28;20034;-70
2024/03/08 04:18:58;;;;;;;35.38;28.08;;;3.50;94.40;;;;;;2070694;28;20091;-71
2024/03/08 04:19:58;;;;;;;36.97;28.88;;;3.50;94.40;;;;;;2071406;28;20723;-71
2024/03/08 04:20:59;;;;;;;35.42;27.98;;;3.50;94.50;;;;;;2068183;28;20164;-71
2024/03/08 04:22:00;;;;;;;35.47;29.02;;;3.50;94.50;;;;;;2075242;28;20049;-72
2024/03/08 04:23:02;;;;;;;35.22;29.08;;;3.50;94.50;;;;;;2078205;28;20068;-71
2024/03/08 04:24:02;;;;;;;33.53;27.38;;;3.50;94.50;;;;;;2076874;28;20026;-71
2024/03/08 04:25:04;;;;;;;34.60;27.75;;;3.50;94.50;;;;;;2077539;28;20048;-71
2024/03/08 04:26:06;;;;;;;34.47;27.48;;;3.50;94.90;;;;;;2078280;28;20076;-70
2024/03/08 04:27:06;;;;;;;36.78;29.85;;;3.40;94.60;;;;;;2078620;28;20025;-72
2024/03/08 04:28:11;;;;;;;38.10;29.15;;;3.40;94.60;;;;;;2076950;28;20553;-71
2024/03/08 04:29:14;;;;;;;39.25;29.48;;;3.40;94.60;;;;;;2076454;28;20056;-72
2024/03/08 04:30:15;;;;;;;36.63;29.05;;;3.40;94.60;;;;;;2078465;28;20030;-71
2024/03/08 04:31:15;;;;;;;39.00;29.00;;;3.40;94.60;;;;;;2076162;28;20033;-71
2024/03/08 04:32:16;;;;;;;40.17;29.70;;;3.40;94.70;;;;;;2076647;28;20083;-71
2024/03/08 04:33:17;;;;;;;34.72;28.85;;;3.40;94.70;;;;;;2078275;28;20041;-71
2024/03/08 04:34:18;;;;;;;37.97;29.80;;;3.40;94.70;;;;;;2078429;28;20037;-72
2024/03/08 04:35:20;;;;;;;38.45;29.25;;;3.40;94.70;;;;;;2075777;28;20030;-72
2024/03/08 04:36:20;;;;;;;36.58;29.13;;;3.40;94.70;;;;;;2077082;28;20663;-71
2024/03/08 04:37:21;;;;;;;37.95;30.23;;;3.40;94.80;;;;;;2078717;28;20460;-71
2024/03/08 04:38:22;;;;;;;37.22;29.27;;;3.40;94.70;;;;;;2075888;28;20029;-72
2024/03/08 04:39:23;;;;;;;41.85;30.25;;;3.40;94.80;;;;;;2077933;28;20088;-71
2024/03/08 04:40:23;;;;;;;39.15;29.73;;;3.40;94.80;;;;;;2079441;28;20071;-71
2024/03/08 04:41:24;;;;;;;38.22;30.15;;;3.40;94.80;;;;;;2075359;28;20481;-69
2024/03/08 04:42:26;;;;;;;37.97;28.92;;;3.40;95.10;;;;;;2076316;28;20075;-72
2024/03/08 04:43:30;;;;;;;38.53;31.13;;;3.40;94.90;;;;;;2075683;28;20057;-71
2024/03/08 04:44:31;;;;;;;39.13;30.27;;;3.40;94.90;;;;;;2077457;28;20107;-72
2024/03/08 04:45:32;;;;;;;36.83;28.83;;;3.40;94.90;;;;;;2077067;28;20029;-72
2024/03/08 04:46:32;;;;;;;36.83;29.98;;;3.30;94.90;;;;;;2076556;28;20057;-71
2024/03/08 04:47:33;;;;;;;35.13;29.35;;;3.40;94.90;;;;;;2079365;28;20080;-71
2024/03/08 04:48:33;;;;;;;42.00;30.73;;;3.30;94.90;;;;;;2077934;28;20026;-71
2024/03/08 04:49:35;;;;;;;40.40;30.48;;;3.40;95.00;;;;;;2077008;28;20040;-71
2024/03/08 04:50:35;;;;;;;38.42;30.50;;;3.40;95.00;;;;;;2078354;28;20068;-71
2024/03/08 04:51:36;;;;;;;36.78;29.55;;;3.30;95.00;;;;;;2076239;28;20064;-71
2024/03/08 04:52:36;;;;;;;38.47;30.55;;;3.30;95.10;;;;;;2077642;28;20119;-72
2024/03/08 04:53:37;;;;;;;35.17;29.38;;;3.30;95.10;;;;;;2078248;28;20057;-72
2024/03/08 04:54:37;;;;;;;38.63;29.58;;;3.30;95.10;;;;;;2078641;28;20076;-72
2024/03/08 04:55:38;;;;;;;38.45;29.67;;;3.30;95.10;;;;;;2077070;28;20107;-72
2024/03/08 04:56:39;;;;;;;38.25;29.20;;;3.30;95.10;;;;;;2077232;28;20038;-72
2024/03/08 04:57:39;;;;;;;38.28;30.83;;;3.30;95.20;;;;;;2076840;28;20029;-72
2024/03/08 04:58:40;;;;;;;37.42;29.85;;;3.30;95.20;;;;;;2077289;28;20026;-72
2024/03/08 04:59:40;;;;;;;38.78;30.70;;;3.30;95.20;;;;;;2075452;28;20036;-72
2024/03/08 05:00:41;;;;;;;39.03;29.75;;;3.30;95.20;;;;;;2076420;28;20041;-72
2024/03/08 05:01:43;;;;;;;35.13;28.85;;;3.30;95.30;;;;;;2078821;28;20113;-72
2024/03/08 05:02:44;;;;;;;38.03;29.33;;;3.30;95.30;;;;;;2076252;28;20022;-72
2024/03/08 05:03:44;;;;;;;37.95;29.50;;;3.20;95.30;;;;;;2075330;28;20030;-73
2024/03/08 05:04:45;;;;;;;37.50;31.13;;;3.20;95.30;;;;;;2077744;28;20113;-72
2024/03/08 05:05:45;;;;;;;39.22;30.95;;;3.20;95.30;;;;;;2079618;28;20021;-72
2024/03/08 05:06:46;;;;;;;37.95;29.77;;;3.20;95.40;;;;;;2078679;28;20579;-72
2024/03/08 05:07:46;;;;;;;39.22;30.85;;;3.20;95.40;;;;;;2076711;28;20036;-72
2024/03/08 05:08:47;;;;;;;33.92;28.63;;;3.20;95.40;;;;;;2077075;28;20033;-71
2024/03/08 05:09:51;;;;;;;36.25;29.65;;;3.20;95.40;;;;;;2076839;28;20501;-71
2024/03/08 05:10:51;;;;;;;36.55;29.90;;;3.20;95.50;;;;;;2077151;28;20037;-72
2024/03/08 05:11:52;;;;;;;40.75;30.85;;;3.20;95.50;;;;;;2076461;28;20101;-72
2024/03/08 05:12:53;;;;;;;33.80;28.23;;;3.20;95.50;;;;;;2076680;28;20124;-72
2024/03/08 05:13:53;;;;;;;39.70;31.65;;;3.20;95.50;;;;;;2076633;28;20044;-70
2024/03/08 05:14:55;;;;;;;37.92;29.83;;;3.20;95.60;;;;;;2079167;28;20022;-72